Time;durP1;ratioP1;P1;durP2;ratioP2;P2;SDS_P1;SDS_P2;PMS_P1;PMS_P2;Temp;Humidity;BMP_temperature;BMP_pressure;BME280_temperature;BME280_humidity;BME280_pressure;Samples;Min_cycle;Max_cycle;Signal;HPM_P1;HPM_P2
2022/10/10 00:01:54;;;;;;;3.60;2.37;;;;;;;;;;5014943;28;20213;-81
2022/10/10 00:04:58;;;;;;;3.63;2.37;;;;;;;;;;5014769;28;20538;-81
2022/10/10 00:08:03;;;;;;;4.43;2.20;;;;;;;;;;5014324;28;20648;-81
2022/10/10 00:11:07;;;;;;;4.63;2.57;;;;;;;;;;5014516;28;20172;-82
2022/10/10 00:14:12;;;;;;;4.20;2.33;;;;;;;;;;5013919;28;20220;-81
2022/10/10 00:17:16;;;;;;;4.23;2.43;;;;;;;;;;5014016;28;20189;-81
2022/10/10 00:20:20;;;;;;;4.03;2.30;;;;;;;;;;5025587;28;20617;-81
2022/10/10 00:23:25;;;;;;;9.10;2.87;;;;;;;;;;5013941;28;20576;-81
2022/10/10 00:26:29;;;;;;;3.37;2.20;;;;;;;;;;5003267;28;20177;-81
2022/10/10 00:29:33;;;;;;;5.60;2.50;;;;;;;;;;5014492;28;20540;-82
2022/10/10 00:32:37;;;;;;;5.17;2.50;;;;;;;;;;5014478;28;20177;-82
2022/10/10 00:35:42;;;;;;;4.60;2.67;;;;;;;;;;5014766;28;20622;-81
2022/10/10 00:38:46;;;;;;;5.37;2.80;;;;;;;;;;5015788;28;20181;-82
2022/10/10 00:41:51;;;;;;;4.80;2.43;;;;;;;;;;5004530;28;20205;-81
2022/10/10 00:45:19;;;;;;;6.20;2.50;;;;;;;;;;5026516;28;20177;-81
2022/10/10 00:48:26;;;;;;;3.83;2.17;;;;;;;;;;5015090;28;20192;-81
2022/10/10 00:51:31;;;;;;;8.90;1.97;;;;;;;;;;5026503;28;20177;-82
2022/10/10 00:54:37;;;;;;;4.00;2.33;;;;;;;;;;5003847;28;20220;-82
2022/10/10 00:57:42;;;;;;;3.53;2.30;;;;;;;;;;5003724;28;20200;-81
2022/10/10 01:00:46;;;;;;;4.50;2.47;;;;;;;;;;5025848;28;20224;-81
2022/10/10 01:03:50;;;;;;;3.93;2.47;;;;;;;;;;5015009;28;20208;-82
2022/10/10 01:06:54;;;;;;;4.60;2.50;;;;;;;;;;5026948;28;20180;-82
2022/10/10 01:10:04;;;;;;;4.83;2.30;;;;;;;;;;5026253;28;20181;-81
2022/10/10 01:13:56;;;;;;;6.13;2.20;;;;;;;;;;5013647;28;20618;-81
2022/10/10 01:17:16;;;;;;;5.20;2.57;;;;;;;;;;5028609;28;20645;-82
2022/10/10 01:20:24;;;;;;;2.97;2.10;;;;;;;;;;5036900;28;20636;-82
2022/10/10 01:23:43;;;;;;;4.07;2.17;;;;;;;;;;5048234;28;20220;-82
2022/10/10 01:26:53;;;;;;;3.20;2.30;;;;;;;;;;5036692;28;20185;-82
2022/10/10 01:30:09;;;;;;;4.93;2.30;;;;;;;;;;5037107;28;20188;-82
2022/10/10 01:33:28;;;;;;;4.93;2.43;;;;;;;;;;5036584;28;20212;-82
2022/10/10 01:36:48;;;;;;;4.20;2.37;;;;;;;;;;5036844;28;20192;-82
2022/10/10 01:40:30;;;;;;;2.97;2.30;;;;;;;;;;5036250;28;20192;-82
2022/10/10 01:43:36;;;;;;;5.33;2.30;;;;;;;;;;5047546;28;20223;-82
2022/10/10 01:46:41;;;;;;;4.30;2.37;;;;;;;;;;5048456;28;20176;-82
2022/10/10 01:49:47;;;;;;;4.03;2.67;;;;;;;;;;5036403;28;20536;-82
2022/10/10 01:53:16;;;;;;;3.83;2.70;;;;;;;;;;5047531;28;20203;-82
2022/10/10 01:56:41;;;;;;;3.50;2.40;;;;;;;;;;5024684;28;20183;-81
2022/10/10 02:00:07;;;;;;;11.93;2.63;;;;;;;;;;5024728;28;20200;-82
2022/10/10 02:03:23;;;;;;;3.03;2.73;;;;;;;;;;5024659;28;20208;-82
2022/10/10 02:06:37;;;;;;;3.20;2.10;;;;;;;;;;5035923;28;20647;-82
2022/10/10 02:09:45;;;;;;;4.73;2.50;;;;;;;;;;5025307;28;20180;-82
2022/10/10 02:12:49;;;;;;;4.00;2.47;;;;;;;;;;5035782;28;20215;-82
2022/10/10 02:15:56;;;;;;;5.20;2.73;;;;;;;;;;5024603;28;20188;-82
2022/10/10 02:19:01;;;;;;;3.80;2.50;;;;;;;;;;5024440;28;20192;-82
2022/10/10 02:22:06;;;;;;;4.33;2.83;;;;;;;;;;5035717;28;20204;-82
2022/10/10 02:25:12;;;;;;;7.37;2.80;;;;;;;;;;5046889;28;20184;-82
2022/10/10 02:28:24;;;;;;;4.43;2.63;;;;;;;;;;5047078;28;20196;-82
2022/10/10 02:31:41;;;;;;;4.10;2.90;;;;;;;;;;5024683;28;20180;-82
2022/10/10 02:34:50;;;;;;;4.20;2.53;;;;;;;;;;5024060;28;20216;-82
2022/10/10 02:37:57;;;;;;;4.27;2.70;;;;;;;;;;5024368;28;20176;-82
2022/10/10 02:41:03;;;;;;;7.77;3.10;;;;;;;;;;5035793;28;20177;-82
2022/10/10 02:44:07;;;;;;;3.63;2.60;;;;;;;;;;5024541;28;20211;-82
2022/10/10 02:47:12;;;;;;;3.67;2.67;;;;;;;;;;5024353;28;20182;-82
2022/10/10 02:50:16;;;;;;;4.57;2.67;;;;;;;;;;5025091;28;20527;-82
2022/10/10 02:53:21;;;;;;;4.20;2.90;;;;;;;;;;5051007;28;20212;-82
2022/10/10 02:56:25;;;;;;;5.17;2.90;;;;;;;;;;5039402;28;20195;-82
2022/10/10 02:59:29;;;;;;;5.20;3.07;;;;;;;;;;5038704;28;20177;-82
2022/10/10 03:02:34;;;;;;;6.00;3.13;;;;;;;;;;5050455;28;20544;-81
2022/10/10 03:05:38;;;;;;;6.83;4.27;;;;;;;;;;5038365;28;20635;-81
2022/10/10 03:08:42;;;;;;;8.40;5.20;;;;;;;;;;5038817;28;20176;-81
2022/10/10 03:11:46;;;;;;;6.83;4.70;;;;;;;;;;5018949;28;20196;-82
2022/10/10 03:14:51;;;;;;;12.80;6.30;;;;;;;;;;5018613;28;20200;-81
2022/10/10 03:17:55;;;;;;;9.83;5.90;;;;;;;;;;5018759;28;20656;-81
2022/10/10 03:20:59;;;;;;;11.90;5.73;;;;;;;;;;5007287;28;20192;-82
2022/10/10 03:24:04;;;;;;;11.23;6.93;;;;;;;;;;5026056;28;20215;-82
2022/10/10 03:27:09;;;;;;;13.67;6.73;;;;;;;;;;5062525;28;20177;-82
2022/10/10 03:30:13;;;;;;;19.00;8.10;;;;;;;;;;5038198;28;20177;-82
2022/10/10 03:33:17;;;;;;;14.63;7.43;;;;;;;;;;5049991;28;20204;-82
2022/10/10 03:36:22;;;;;;;15.13;7.07;;;;;;;;;;5049516;28;20176;-82
2022/10/10 03:39:26;;;;;;;14.70;8.00;;;;;;;;;;5038189;28;20184;-82
2022/10/10 03:42:30;;;;;;;14.47;7.97;;;;;;;;;;5049450;28;20211;-82
2022/10/10 03:45:35;;;;;;;14.33;8.70;;;;;;;;;;5025795;28;20180;-82
2022/10/10 03:48:39;;;;;;;18.20;8.73;;;;;;;;;;5037740;28;20184;-82
2022/10/10 03:51:43;;;;;;;18.13;9.20;;;;;;;;;;5038096;28;20177;-82
2022/10/10 03:54:48;;;;;;;16.63;9.37;;;;;;;;;;5036401;28;20216;-82
2022/10/10 03:57:52;;;;;;;19.33;9.57;;;;;;;;;;5048839;28;20180;-82
2022/10/10 04:00:58;;;;;;;20.43;9.40;;;;;;;;;;5026309;28;20184;-82
2022/10/10 04:04:04;;;;;;;18.50;8.70;;;;;;;;;;5048373;28;20204;-82
2022/10/10 04:07:08;;;;;;;23.37;10.80;;;;;;;;;;5026715;28;20176;-82
2022/10/10 04:10:13;;;;;;;24.47;11.30;;;;;;;;;;5038381;28;20176;-82
2022/10/10 04:13:19;;;;;;;22.97;10.47;;;;;;;;;;5036717;28;20219;-83
2022/10/10 04:16:23;;;;;;;19.40;10.27;;;;;;;;;;5041401;28;20184;-83
2022/10/10 04:19:27;;;;;;;24.77;11.60;;;;;;;;;;5039108;28;20180;-82
2022/10/10 04:22:32;;;;;;;19.23;10.90;;;;;;;;;;5005532;28;20216;-83
2022/10/10 04:25:36;;;;;;;19.43;10.17;;;;;;;;;;5035320;28;20183;-82
2022/10/10 04:28:40;;;;;;;20.57;10.50;;;;;;;;;;5049914;28;20192;-82
2022/10/10 04:31:45;;;;;;;23.90;11.63;;;;;;;;;;5038569;28;20181;-82
2022/10/10 04:34:49;;;;;;;23.70;11.60;;;;;;;;;;5016438;28;20224;-82
2022/10/10 04:37:53;;;;;;;21.40;11.20;;;;;;;;;;5038726;28;20204;-81
2022/10/10 04:40:57;;;;;;;17.43;7.63;;;;;;;;;;5050228;28;20195;-81
2022/10/10 04:44:01;;;;;;;16.07;8.30;;;;;;;;;;5034727;28;20211;-81
2022/10/10 04:47:06;;;;;;;21.33;10.60;;;;;;;;;;5047807;28;20183;-81
2022/10/10 04:50:10;;;;;;;18.10;9.40;;;;;;;;;;5029971;28;20180;-81
2022/10/10 04:53:14;;;;;;;16.53;8.50;;;;;;;;;;5039741;28;20211;-81
2022/10/10 04:56:18;;;;;;;16.90;8.43;;;;;;;;;;5033956;28;20188;-80
2022/10/10 04:59:22;;;;;;;13.80;7.40;;;;;;;;;;5055367;28;20650;-81
2022/10/10 05:02:27;;;;;;;16.80;7.87;;;;;;;;;;5055821;28;20208;-82
2022/10/10 05:05:31;;;;;;;19.40;8.40;;;;;;;;;;5056069;28;20183;-82
2022/10/10 05:08:36;;;;;;;18.10;8.87;;;;;;;;;;5056251;28;20176;-82
2022/10/10 05:11:40;;;;;;;15.87;7.70;;;;;;;;;;5044070;28;20191;-81
2022/10/10 05:14:44;;;;;;;20.47;9.17;;;;;;;;;;5048735;28;20219;-84
2022/10/10 05:17:49;;;;;;;14.83;8.87;;;;;;;;;;5046588;28;20180;-84
2022/10/10 05:20:53;;;;;;;17.43;9.47;;;;;;;;;;5070240;28;20179;-84
2022/10/10 05:23:57;;;;;;;25.33;10.93;;;;;;;;;;5063770;28;20227;-84
2022/10/10 05:27:01;;;;;;;17.27;8.73;;;;;;;;;;5056796;28;20199;-84
2022/10/10 05:30:06;;;;;;;17.73;9.17;;;;;;;;;;5068047;28;20199;-84
2022/10/10 05:33:10;;;;;;;19.73;9.73;;;;;;;;;;5041226;28;20711;-84
2022/10/10 05:36:14;;;;;;;26.07;11.00;;;;;;;;;;5019105;28;20192;-84
2022/10/10 05:39:18;;;;;;;26.83;11.20;;;;;;;;;;5019620;28;20192;-84
2022/10/10 05:42:23;;;;;;;27.57;11.90;;;;;;;;;;5018998;28;20200;-85
2022/10/10 05:45:27;;;;;;;24.27;11.33;;;;;;;;;;5019207;28;20172;-84
2022/10/10 05:48:32;;;;;;;21.53;10.80;;;;;;;;;;5016997;28;20181;-85
2022/10/10 05:51:36;;;;;;;25.03;11.93;;;;;;;;;;5020020;28;20177;-84
2022/10/10 05:54:40;;;;;;;26.13;12.00;;;;;;;;;;5030358;28;20212;-84
2022/10/10 05:57:44;;;;;;;20.53;11.20;;;;;;;;;;5030514;28;20196;-84
2022/10/10 06:00:48;;;;;;;25.73;13.60;;;;;;;;;;5018988;28;20192;-84
2022/10/10 06:03:54;;;;;;;24.17;12.50;;;;;;;;;;5019135;28;20699;-84
2022/10/10 06:06:59;;;;;;;29.97;13.30;;;;;;;;;;5019586;28;20173;-84
2022/10/10 06:10:04;;;;;;;23.13;11.57;;;;;;;;;;5042630;28;20172;-84
2022/10/10 06:13:10;;;;;;;26.17;11.83;;;;;;;;;;5039376;28;20230;-84
2022/10/10 06:16:14;;;;;;;23.27;12.57;;;;;;;;;;5019494;28;20204;-84
2022/10/10 06:19:20;;;;;;;27.33;12.43;;;;;;;;;;5042818;28;20183;-84
2022/10/10 06:22:24;;;;;;;26.43;12.13;;;;;;;;;;5020648;28;20220;-85
2022/10/10 06:25:31;;;;;;;25.03;12.87;;;;;;;;;;5009236;28;20187;-85
2022/10/10 06:28:36;;;;;;;27.83;14.80;;;;;;;;;;5011840;28;20211;-82
2022/10/10 06:31:40;;;;;;;27.27;15.23;;;;;;;;;;5007265;28;20196;-79
2022/10/10 06:34:44;;;;;;;26.60;14.67;;;;;;;;;;5018729;28;20215;-79
2022/10/10 06:37:48;;;;;;;35.57;15.30;;;;;;;;;;5018344;28;20188;-78
2022/10/10 06:40:53;;;;;;;23.33;14.20;;;;;;;;;;5029143;28;20196;-79
2022/10/10 06:43:57;;;;;;;25.87;16.17;;;;;;;;;;5006683;28;20240;-80
2022/10/10 06:47:01;;;;;;;31.47;16.10;;;;;;;;;;5017858;28;20192;-80
2022/10/10 06:50:05;;;;;;;23.07;14.97;;;;;;;;;;5028551;28;20184;-80
2022/10/10 06:53:09;;;;;;;27.70;15.03;;;;;;;;;;5028445;28;20219;-80
2022/10/10 06:56:20;;;;;;;22.00;14.47;;;;;;;;;;5006214;28;20199;-80
2022/10/10 06:59:24;;;;;;;22.10;14.80;;;;;;;;;;5028015;28;20184;-79
2022/10/10 07:02:28;;;;;;;25.10;15.53;;;;;;;;;;5040456;28;20571;-81
2022/10/10 07:05:32;;;;;;;28.67;15.63;;;;;;;;;;5016848;28;20196;-79
2022/10/10 07:08:37;;;;;;;20.47;14.00;;;;;;;;;;5016858;28;20188;-81
2022/10/10 07:11:44;;;;;;;19.20;13.50;;;;;;;;;;5016304;28;20683;-80
2022/10/10 07:14:48;;;;;;;19.40;14.30;;;;;;;;;;5029112;28;20216;-81
2022/10/10 07:17:57;;;;;;;20.07;14.27;;;;;;;;;;5017246;28;20188;-81
2022/10/10 07:21:01;;;;;;;17.83;12.63;;;;;;;;;;5017533;28;20192;-80
2022/10/10 07:24:05;;;;;;;17.13;12.50;;;;;;;;;;5016587;28;20239;-80
2022/10/10 07:27:10;;;;;;;16.83;13.00;;;;;;;;;;5027875;28;20208;-80
2022/10/10 07:30:14;;;;;;;16.53;12.93;;;;;;;;;;5028538;28;20678;-79
2022/10/10 07:33:18;;;;;;;15.07;12.13;;;;;;;;;;5018042;28;20223;-84
2022/10/10 07:36:22;;;;;;;14.97;11.80;;;;;;;;;;5007193;28;20184;-83
2022/10/10 07:39:26;;;;;;;19.17;12.40;;;;;;;;;;5019360;28;20184;-84
2022/10/10 07:42:30;;;;;;;13.33;10.13;;;;;;;;;;5009616;28;20188;-83
2022/10/10 07:45:36;;;;;;;14.23;10.40;;;;;;;;;;5030510;28;20655;-83
2022/10/10 07:48:40;;;;;;;12.93;10.50;;;;;;;;;;5022568;28;20191;-83
2022/10/10 07:51:44;;;;;;;13.23;10.43;;;;;;;;;;5042208;28;20210;-82
2022/10/10 07:54:49;;;;;;;14.00;9.77;;;;;;;;;;5054135;28;20222;-83
2022/10/10 07:57:53;;;;;;;14.00;10.10;;;;;;;;;;5021737;28;20197;-83
2022/10/10 08:01:04;;;;;;;12.00;9.40;;;;;;;;;;5010916;28;20196;-83
2022/10/10 08:04:08;;;;;;;12.37;9.93;;;;;;;;;;5034327;28;20228;-83
2022/10/10 08:07:13;;;;;;;11.57;9.43;;;;;;;;;;5048000;28;20200;-83
2022/10/10 08:10:17;;;;;;;10.87;8.90;;;;;;;;;;5009561;28;20196;-83
2022/10/10 08:13:21;;;;;;;10.17;8.53;;;;;;;;;;5009665;28;20216;-83
2022/10/10 08:16:26;;;;;;;16.40;13.07;;;;;;;;;;5021620;28;20185;-82
2022/10/10 08:19:30;;;;;;;12.83;9.47;;;;;;;;;;5010452;28;20655;-83
2022/10/10 08:22:34;;;;;;;12.70;9.43;;;;;;;;;;5009604;28;20177;-83
2022/10/10 08:25:39;;;;;;;8.73;6.87;;;;;;;;;;5009796;28;20177;-82
2022/10/10 08:28:44;;;;;;;12.33;8.63;;;;;;;;;;5021557;28;20177;-83
2022/10/10 08:31:48;;;;;;;11.83;9.27;;;;;;;;;;5020833;28;20181;-81
2022/10/10 08:34:52;;;;;;;12.30;8.47;;;;;;;;;;5033408;28;20674;-82
2022/10/10 08:37:56;;;;;;;11.63;8.53;;;;;;;;;;5019709;28;20204;-82
2022/10/10 08:41:10;;;;;;;13.50;12.10;;;;;;;;;;5024550;28;20204;-80
2022/10/10 08:44:42;;;;;;;11.93;9.77;;;;;;;;;;5051335;28;20238;-81
2022/10/10 08:48:04;;;;;;;10.23;7.90;;;;;;;;;;5027652;28;20185;-82
2022/10/10 08:51:18;;;;;;;14.10;8.13;;;;;;;;;;5032410;28;20561;-82
2022/10/10 08:54:25;;;;;;;8.93;7.20;;;;;;;;;;5007874;28;20212;-83
2022/10/10 08:57:34;;;;;;;8.50;6.80;;;;;;;;;;5018866;28;20620;-82
2022/10/10 09:00:53;;;;;;;8.83;6.97;;;;;;;;;;5008410;28;20173;-82
2022/10/10 09:04:03;;;;;;;9.53;6.20;;;;;;;;;;5011755;28;20224;-83
2022/10/10 09:07:23;;;;;;;9.50;6.00;;;;;;;;;;5035978;28;20181;-82
2022/10/10 09:10:39;;;;;;;8.17;5.90;;;;;;;;;;5024578;28;20184;-83
2022/10/10 09:14:22;;;;;;;7.07;6.10;;;;;;;;;;5058689;28;20219;-82
2022/10/10 09:17:43;;;;;;;8.07;5.90;;;;;;;;;;5025101;28;20177;-82
2022/10/10 09:21:00;;;;;;;7.30;5.47;;;;;;;;;;5035675;28;20632;-82
2022/10/10 09:24:15;;;;;;;8.43;6.30;;;;;;;;;;5048278;28;20224;-82
2022/10/10 09:27:24;;;;;;;7.83;5.60;;;;;;;;;;5025354;28;20180;-82
2022/10/10 09:30:32;;;;;;;7.93;6.17;;;;;;;;;;5035651;28;20180;-83
2022/10/10 09:33:42;;;;;;;7.67;5.63;;;;;;;;;;5020964;28;20220;-83
2022/10/10 09:36:48;;;;;;;5.97;5.37;;;;;;;;;;5017722;28;20188;-83
2022/10/10 09:40:00;;;;;;;7.97;5.80;;;;;;;;;;5006226;28;20181;-82
2022/10/10 09:43:16;;;;;;;8.93;5.33;;;;;;;;;;5028536;28;20216;-83
2022/10/10 09:46:21;;;;;;;7.13;5.57;;;;;;;;;;5017605;28;20177;-83
2022/10/10 09:49:26;;;;;;;6.37;5.27;;;;;;;;;;5028531;28;20181;-82
2022/10/10 09:52:31;;;;;;;6.27;5.30;;;;;;;;;;5008885;28;20188;-83
2022/10/10 09:55:37;;;;;;;5.77;4.93;;;;;;;;;;5030541;28;20193;-83
2022/10/10 09:58:43;;;;;;;7.53;5.40;;;;;;;;;;5004593;28;20181;-81
2022/10/10 10:02:02;;;;;;;6.73;5.23;;;;;;;;;;5015838;28;20193;-82
2022/10/10 10:05:23;;;;;;;7.37;5.27;;;;;;;;;;5005120;28;20212;-81
2022/10/10 10:08:30;;;;;;;8.33;5.10;;;;;;;;;;5015124;28;20174;-81
2022/10/10 10:11:38;;;;;;;6.57;5.07;;;;;;;;;;5038434;28;20181;-81
2022/10/10 10:14:43;;;;;;;5.93;4.73;;;;;;;;;;5025517;28;20213;-80
2022/10/10 10:18:08;;;;;;;6.77;4.90;;;;;;;;;;5025618;28;20505;-80
2022/10/10 10:21:23;;;;;;;6.10;4.67;;;;;;;;;;5014988;28;20181;-81
2022/10/10 10:24:36;;;;;;;6.50;4.90;;;;;;;;;;5014343;28;20228;-81
2022/10/10 10:27:40;;;;;;;9.33;5.53;;;;;;;;;;5013546;28;20177;-82
2022/10/10 10:30:45;;;;;;;7.43;4.77;;;;;;;;;;5013637;28;20554;-79
2022/10/10 10:34:09;;;;;;;7.87;4.07;;;;;;;;;;5014609;28;20216;-82
2022/10/10 10:37:45;;;;;;;6.00;5.03;;;;;;;;;;5014135;28;20181;-82
2022/10/10 10:41:09;;;;;;;11.40;4.90;;;;;;;;;;5003151;28;20186;-82
2022/10/10 10:44:39;;;;;;;6.93;4.40;;;;;;;;;;5002962;28;20227;-82
2022/10/10 10:47:52;;;;;;;7.73;5.20;;;;;;;;;;5004189;28;20181;-83
2022/10/10 10:51:12;;;;;;;5.23;4.63;;;;;;;;;;5014402;28;20177;-82
2022/10/10 10:54:38;;;;;;;8.27;4.80;;;;;;;;;;5015995;28;20209;-82
2022/10/10 10:58:14;;;;;;;6.17;4.70;;;;;;;;;;5015047;28;20199;-82
2022/10/10 11:01:25;;;;;;;5.53;4.47;;;;;;;;;;5002977;28;20526;-83
2022/10/10 11:04:51;;;;;;;6.27;5.07;;;;;;;;;;5025947;28;20694;-82
2022/10/10 11:08:20;;;;;;;8.07;4.63;;;;;;;;;;5013544;28;20181;-82
2022/10/10 11:11:43;;;;;;;14.23;4.17;;;;;;;;;;5003270;28;20181;-83
2022/10/10 11:15:03;;;;;;;5.67;4.00;;;;;;;;;;5017857;28;20221;-83
2022/10/10 11:18:24;;;;;;;6.87;4.23;;;;;;;;;;5018681;28;20181;-83
2022/10/10 11:21:31;;;;;;;7.67;4.23;;;;;;;;;;5018818;28;20181;-83
2022/10/10 11:24:40;;;;;;;9.33;4.83;;;;;;;;;;5029735;28;20696;-83
2022/10/10 11:27:49;;;;;;;6.13;4.60;;;;;;;;;;5008166;28;20624;-82
2022/10/10 11:30:58;;;;;;;7.10;4.00;;;;;;;;;;5007804;28;20501;-83
2022/10/10 11:34:17;;;;;;;6.10;3.93;;;;;;;;;;5007450;28;20213;-82
2022/10/10 11:37:28;;;;;;;5.17;4.67;;;;;;;;;;5030425;28;20200;-84
2022/10/10 11:40:59;;;;;;;8.23;3.87;;;;;;;;;;5007848;28;20177;-84
2022/10/10 11:44:08;;;;;;;6.13;4.10;;;;;;;;;;5006309;28;20679;-82
2022/10/10 11:47:23;;;;;;;5.33;3.43;;;;;;;;;;5016168;28;20188;-84
2022/10/10 11:50:32;;;;;;;7.47;3.53;;;;;;;;;;5006183;28;20540;-82
2022/10/10 11:53:41;;;;;;;5.10;3.70;;;;;;;;;;5007347;28;20683;-82
2022/10/10 11:56:48;;;;;;;4.40;3.70;;;;;;;;;;5019614;28;20526;-83
2022/10/10 11:59:59;;;;;;;5.03;3.60;;;;;;;;;;5016961;28;20185;-83
2022/10/10 12:03:05;;;;;;;7.47;3.00;;;;;;;;;;5028577;28;20216;-82
2022/10/10 12:06:37;;;;;;;6.50;3.07;;;;;;;;;;5027927;28;20174;-82
2022/10/10 12:09:51;;;;;;;6.33;3.50;;;;;;;;;;5005264;28;20182;-81
2022/10/10 12:13:02;;;;;;;5.10;3.23;;;;;;;;;;5005040;28;20225;-83
2022/10/10 12:16:10;;;;;;;6.30;2.77;;;;;;;;;;5028141;28;20173;-83
2022/10/10 12:19:18;;;;;;;8.20;3.10;;;;;;;;;;5017323;28;20185;-83
2022/10/10 12:22:27;;;;;;;5.20;2.60;;;;;;;;;;5006036;28;20640;-83
2022/10/10 12:25:36;;;;;;;6.73;2.90;;;;;;;;;;5017879;28;20215;-83
2022/10/10 12:29:00;;;;;;;10.30;3.10;;;;;;;;;;5006883;28;20182;-83
2022/10/10 12:32:13;;;;;;;6.43;2.90;;;;;;;;;;5006185;28;20182;-83
2022/10/10 12:35:32;;;;;;;5.37;2.43;;;;;;;;;;5006316;28;20179;-83
2022/10/10 12:38:36;;;;;;;8.03;2.53;;;;;;;;;;5017578;28;20178;-82
2022/10/10 12:41:41;;;;;;;5.63;2.63;;;;;;;;;;5034749;28;20210;-82
2022/10/10 12:44:45;;;;;;;7.40;2.30;;;;;;;;;;5036841;28;20229;-82
2022/10/10 12:47:50;;;;;;;3.77;2.47;;;;;;;;;;5037598;28;20202;-82
2022/10/10 12:50:57;;;;;;;6.87;2.60;;;;;;;;;;5060899;28;20176;-83
2022/10/10 12:54:03;;;;;;;3.87;2.20;;;;;;;;;;5037690;28;20224;-83
2022/10/10 12:57:10;;;;;;;4.77;2.63;;;;;;;;;;5026504;28;20633;-84
2022/10/10 13:00:20;;;;;;;7.77;2.43;;;;;;;;;;5037693;28;20173;-83
2022/10/10 13:03:38;;;;;;;3.23;2.10;;;;;;;;;;5036767;28;20213;-83
2022/10/10 13:06:44;;;;;;;5.63;2.43;;;;;;;;;;5037386;28;20524;-82
2022/10/10 13:09:51;;;;;;;6.50;2.70;;;;;;;;;;5047786;28;20187;-81
2022/10/10 13:13:03;;;;;;;7.57;2.10;;;;;;;;;;5033907;28;20225;-79
2022/10/10 13:16:12;;;;;;;5.47;2.33;;;;;;;;;;5045293;28;20516;-79
2022/10/10 13:19:22;;;;;;;3.63;2.10;;;;;;;;;;5033832;28;20186;-79
2022/10/10 13:22:31;;;;;;;6.43;2.40;;;;;;;;;;5057975;28;20182;-78
2022/10/10 13:25:38;;;;;;;6.27;2.53;;;;;;;;;;5058030;28;20209;-79
2022/10/10 13:28:44;;;;;;;6.17;2.03;;;;;;;;;;5057796;28;20182;-79
2022/10/10 13:31:50;;;;;;;9.63;2.20;;;;;;;;;;5045962;28;20181;-78
2022/10/10 13:34:57;;;;;;;7.60;2.13;;;;;;;;;;5045483;28;20178;-78
2022/10/10 13:38:02;;;;;;;6.27;2.60;;;;;;;;;;5045075;28;20205;-78
2022/10/10 13:41:06;;;;;;;9.83;2.40;;;;;;;;;;5034275;28;20624;-79
2022/10/10 13:44:19;;;;;;;4.03;2.13;;;;;;;;;;5034926;28;20216;-78
2022/10/10 13:47:45;;;;;;;4.57;1.97;;;;;;;;;;5046158;28;20180;-79
2022/10/10 13:51:11;;;;;;;4.10;2.30;;;;;;;;;;5033248;28;20181;-80
2022/10/10 13:54:38;;;;;;;7.30;2.27;;;;;;;;;;5021014;28;20556;-80
2022/10/10 13:57:42;;;;;;;5.77;2.20;;;;;;;;;;5043344;28;20619;-80
2022/10/10 14:00:56;;;;;;;7.23;2.40;;;;;;;;;;5032714;28;20200;-82
2022/10/10 14:04:24;;;;;;;11.47;2.30;;;;;;;;;;5023244;28;20679;-82
2022/10/10 14:07:29;;;;;;;2.87;2.00;;;;;;;;;;5033743;28;20176;-83
2022/10/10 14:10:35;;;;;;;5.67;2.50;;;;;;;;;;5034941;28;20180;-82
2022/10/10 14:13:51;;;;;;;12.73;2.87;;;;;;;;;;5035626;28;20219;-81
2022/10/10 14:17:03;;;;;;;17.87;2.90;;;;;;;;;;5036157;28;20181;-82
2022/10/10 14:20:11;;;;;;;6.33;2.30;;;;;;;;;;5036344;28;20184;-82
2022/10/10 14:23:16;;;;;;;3.83;2.20;;;;;;;;;;5035898;28;20224;-82
2022/10/10 14:26:20;;;;;;;4.67;2.50;;;;;;;;;;5025456;28;20667;-82
2022/10/10 14:29:25;;;;;;;5.03;2.13;;;;;;;;;;5025324;28;20176;-82
2022/10/10 14:32:29;;;;;;;34.40;3.83;;;;;;;;;;5037609;28;20180;-82
2022/10/10 14:35:33;;;;;;;4.23;2.10;;;;;;;;;;5049702;28;20180;-82
2022/10/10 14:38:37;;;;;;;9.33;2.13;;;;;;;;;;5048650;28;20180;-82
2022/10/10 14:41:42;;;;;;;9.87;2.47;;;;;;;;;;5049301;28;20176;-82
2022/10/10 14:44:46;;;;;;;18.00;6.97;;;;;;;;;;5025219;28;20219;-81
2022/10/10 14:47:51;;;;;;;8.33;3.67;;;;;;;;;;5050666;28;20176;-81
2022/10/10 14:50:55;;;;;;;8.63;2.20;;;;;;;;;;5051943;28;20177;-81
2022/10/10 14:53:59;;;;;;;8.23;2.53;;;;;;;;;;5040772;28;20212;-81
2022/10/10 14:57:04;;;;;;;8.37;2.30;;;;;;;;;;5052877;28;20176;-81
2022/10/10 15:00:14;;;;;;;4.20;2.37;;;;;;;;;;5040858;28;20196;-81
2022/10/10 15:03:19;;;;;;;6.60;2.27;;;;;;;;;;5030121;28;20204;-81
2022/10/10 15:06:23;;;;;;;5.70;2.10;;;;;;;;;;5040252;28;20207;-81
2022/10/10 15:09:28;;;;;;;3.43;2.30;;;;;;;;;;5029971;28;20195;-81
2022/10/10 15:12:35;;;;;;;6.90;2.33;;;;;;;;;;5040551;28;20200;-81
2022/10/10 15:15:40;;;;;;;5.03;2.00;;;;;;;;;;5041165;28;20180;-81
2022/10/10 15:18:44;;;;;;;4.57;2.20;;;;;;;;;;5036405;28;20497;-81
2022/10/10 15:21:48;;;;;;;5.63;2.37;;;;;;;;;;5059162;28;20624;-80
2022/10/10 15:24:52;;;;;;;9.93;2.23;;;;;;;;;;5058717;28;20620;-81
2022/10/10 15:27:56;;;;;;;5.00;2.20;;;;;;;;;;5023819;28;20196;-80
2022/10/10 15:31:01;;;;;;;8.23;2.37;;;;;;;;;;5023622;28;20184;-80
2022/10/10 15:34:05;;;;;;;13.03;2.87;;;;;;;;;;5046411;28;20215;-79
2022/10/10 15:37:09;;;;;;;4.53;2.30;;;;;;;;;;5024068;28;20172;-79
2022/10/10 15:40:18;;;;;;;6.60;2.50;;;;;;;;;;5046980;28;20635;-79
2022/10/10 15:43:23;;;;;;;5.40;2.30;;;;;;;;;;5023495;28;20211;-79
2022/10/10 15:46:29;;;;;;;5.40;2.87;;;;;;;;;;5035331;28;20204;-80
2022/10/10 15:49:33;;;;;;;11.37;2.40;;;;;;;;;;5023788;28;20176;-79
2022/10/10 15:52:37;;;;;;;4.53;2.13;;;;;;;;;;5047052;28;20176;-79
2022/10/10 15:55:45;;;;;;;5.83;2.37;;;;;;;;;;5046139;28;20271;-81
2022/10/10 15:58:57;;;;;;;8.53;2.40;;;;;;;;;;5026307;28;20196;-81
2022/10/10 16:02:02;;;;;;;4.13;2.67;;;;;;;;;;5037621;28;20177;-81
2022/10/10 16:05:07;;;;;;;14.40;2.47;;;;;;;;;;5039615;28;20180;-83
2022/10/10 16:08:11;;;;;;;6.23;2.13;;;;;;;;;;5026427;28;20180;-82
2022/10/10 16:11:19;;;;;;;5.33;2.57;;;;;;;;;;5038155;28;20173;-83
2022/10/10 16:14:23;;;;;;;6.33;2.57;;;;;;;;;;5038813;28;20207;-82
2022/10/10 16:17:28;;;;;;;5.30;2.77;;;;;;;;;;5038930;28;20168;-83
2022/10/10 16:20:32;;;;;;;7.37;2.60;;;;;;;;;;5034422;28;20185;-79
2022/10/10 16:23:37;;;;;;;2.83;2.30;;;;;;;;;;5057776;28;20219;-79
2022/10/10 16:26:41;;;;;;;5.83;2.90;;;;;;;;;;5033637;28;20216;-80
2022/10/10 16:29:45;;;;;;;6.87;2.57;;;;;;;;;;5033783;28;20184;-80
2022/10/10 16:32:49;;;;;;;6.90;2.07;;;;;;;;;;5044933;28;20219;-80
2022/10/10 16:35:53;;;;;;;9.93;2.60;;;;;;;;;;5059331;28;20196;-79
2022/10/10 16:38:58;;;;;;;6.27;2.33;;;;;;;;;;5057088;28;20655;-80
2022/10/10 16:42:03;;;;;;;5.67;2.37;;;;;;;;;;5033348;28;20196;-79
2022/10/10 16:45:08;;;;;;;7.27;2.73;;;;;;;;;;5056543;28;20192;-80
2022/10/10 16:48:12;;;;;;;3.60;2.37;;;;;;;;;;5022706;28;20513;-80
2022/10/10 16:51:19;;;;;;;8.93;2.40;;;;;;;;;;5047471;28;20195;-80
2022/10/10 16:54:23;;;;;;;7.03;2.70;;;;;;;;;;5054711;28;20223;-78
2022/10/10 16:57:27;;;;;;;7.03;2.37;;;;;;;;;;5032714;28;20175;-78
2022/10/10 17:00:32;;;;;;;5.30;2.10;;;;;;;;;;5045068;28;20184;-82
2022/10/10 17:03:36;;;;;;;11.00;2.17;;;;;;;;;;5033527;28;20212;-81
2022/10/10 17:06:41;;;;;;;5.87;2.20;;;;;;;;;;5022346;28;20208;-81
2022/10/10 17:09:58;;;;;;;7.43;2.50;;;;;;;;;;5113566;27;20893;-82
2022/10/10 17:13:03;;;;;;;4.93;2.73;;;;;;;;;;5101405;28;20217;-82
2022/10/10 17:16:15;;;;;;;6.60;2.90;;;;;;;;;;5112768;28;20179;-82
2022/10/10 17:19:19;;;;;;;4.33;2.80;;;;;;;;;;5104452;28;20178;-82
2022/10/10 17:22:23;;;;;;;7.63;2.80;;;;;;;;;;5092468;28;20182;-83
2022/10/10 17:25:30;;;;;;;5.87;2.70;;;;;;;;;;5115457;28;20171;-83
2022/10/10 17:28:34;;;;;;;5.20;2.83;;;;;;;;;;5092634;28;20206;-85
2022/10/10 17:31:39;;;;;;;8.07;3.40;;;;;;;;;;5103866;28;20186;-83
2022/10/10 17:34:44;;;;;;;4.00;3.00;;;;;;;;;;5089698;28;20214;-82
2022/10/10 17:37:48;;;;;;;4.50;3.10;;;;;;;;;;5112906;28;20186;-83
2022/10/10 17:40:57;;;;;;;6.50;3.30;;;;;;;;;;5101463;28;20190;-82
2022/10/10 17:44:01;;;;;;;7.93;3.20;;;;;;;;;;5089135;28;20226;-82
2022/10/10 17:47:06;;;;;;;8.43;3.23;;;;;;;;;;5100617;28;20182;-82
2022/10/10 17:50:11;;;;;;;7.93;3.30;;;;;;;;;;5112896;28;20171;-81
2022/10/10 17:53:15;;;;;;;6.87;3.00;;;;;;;;;;5087907;28;20215;-81
2022/10/10 17:56:21;;;;;;;5.87;3.30;;;;;;;;;;5080515;28;20171;-81
2022/10/10 17:59:24;;;;;;;6.57;3.47;;;;;;;;;;5081323;28;20175;-82
2022/10/10 18:02:30;;;;;;;8.03;3.00;;;;;;;;;;5080515;28;20542;-81
2022/10/10 18:05:35;;;;;;;6.93;3.40;;;;;;;;;;5093477;28;20179;-82
2022/10/10 18:08:39;;;;;;;8.47;3.10;;;;;;;;;;5069741;28;20214;-82
2022/10/10 18:11:43;;;;;;;9.73;3.43;;;;;;;;;;5062140;28;20551;-81
2022/10/10 18:14:47;;;;;;;7.53;3.33;;;;;;;;;;5052599;28;20211;-82
2022/10/10 18:17:51;;;;;;;5.47;3.27;;;;;;;;;;5052400;28;20184;-82
2022/10/10 18:21:07;;;;;;;4.97;2.77;;;;;;;;;;5053166;28;20199;-83
2022/10/10 18:24:11;;;;;;;5.03;3.30;;;;;;;;;;5049117;28;20220;-81
2022/10/10 18:27:15;;;;;;;9.33;3.63;;;;;;;;;;5052504;28;20184;-82
2022/10/10 18:30:19;;;;;;;5.63;3.27;;;;;;;;;;5050160;28;20168;-82
2022/10/10 18:33:25;;;;;;;7.87;3.83;;;;;;;;;;5048279;28;20263;-81
2022/10/10 18:36:31;;;;;;;9.23;3.60;;;;;;;;;;5060756;28;20181;-81
2022/10/10 18:39:36;;;;;;;6.50;3.57;;;;;;;;;;5042132;28;20176;-82